createdAt,value
2022-11-21T00:01:27.105Z,8.65
2022-11-21T00:03:54.089Z,8.20
2022-11-21T00:06:22.273Z,8.88
2022-11-21T00:08:49.334Z,8.55
2022-11-21T00:11:16.665Z,9.07
2022-11-21T00:13:44.443Z,8.15
2022-11-21T00:16:14.665Z,8.32
2022-11-21T00:18:42.629Z,9.02
2022-11-21T00:21:15.299Z,9.43
2022-11-21T00:23:43.375Z,8.73
2022-11-21T00:26:12.196Z,8.77
2022-11-21T00:28:39.327Z,8.00
2022-11-21T00:31:06.852Z,9.98
2022-11-21T00:33:39.479Z,11.88
2022-11-21T00:36:09.997Z,11.20
2022-11-21T00:38:37.763Z,12.35
2022-11-21T00:41:05.802Z,11.50
2022-11-21T00:43:33.064Z,9.07
2022-11-21T00:46:03.201Z,8.90
2022-11-21T00:48:32.219Z,8.73
2022-11-21T00:51:01.097Z,9.23
2022-11-21T00:53:28.657Z,7.82
2022-11-21T00:55:55.780Z,7.80
2022-11-21T00:58:22.733Z,9.35
2022-11-21T01:00:50.066Z,7.93
2022-11-21T01:03:17.645Z,5.95
2022-11-21T01:05:45.290Z,8.65
2022-11-21T01:08:12.368Z,7.60
2022-11-21T01:10:39.286Z,8.35
2022-11-21T01:13:06.679Z,8.55
2022-11-21T01:15:34.390Z,7.40
2022-11-21T01:18:01.218Z,6.35
2022-11-21T01:20:28.236Z,7.80
2022-11-21T01:22:55.326Z,7.30
2022-11-21T01:25:22.470Z,7.53
2022-11-21T01:27:49.648Z,7.47
2022-11-21T01:30:17.805Z,8.57
2022-11-21T01:32:48.456Z,7.53
2022-11-21T01:35:16.312Z,9.07
2022-11-21T01:37:43.596Z,9.13
2022-11-21T01:40:11.631Z,9.18
2022-11-21T01:43:10.318Z,9.45
2022-11-21T01:46:00.042Z,11.07
2022-11-21T01:48:41.383Z,14.30
2022-11-21T01:51:32.816Z,15.38
2022-11-21T01:54:06.604Z,13.45
2022-11-21T01:57:02.043Z,14.05
2022-11-21T01:59:40.960Z,12.68
2022-11-21T02:02:10.300Z,13.07
2022-11-21T02:04:39.545Z,8.18
2022-11-21T02:07:08.316Z,10.18
2022-11-21T02:09:39.766Z,7.75
2022-11-21T02:12:18.396Z,7.32
2022-11-21T02:14:45.551Z,9.35
2022-11-21T02:17:12.549Z,7.80
2022-11-21T02:20:05.639Z,7.03
2022-11-21T02:23:13.042Z,7.72
2022-11-21T02:25:42.461Z,8.52
2022-11-21T02:28:13.485Z,6.63
2022-11-21T02:30:42.661Z,6.75
2022-11-21T02:33:11.329Z,4.55
2022-11-21T02:35:39.648Z,6.47
2022-11-21T02:38:29.199Z,5.28
2022-11-21T02:41:32.484Z,7.07
2022-11-21T02:44:05.600Z,8.52
2022-11-21T02:46:35.331Z,8.48
2022-11-21T02:49:06.819Z,6.78
2022-11-21T02:54:00.514Z,7.55
2022-11-21T02:56:30.543Z,7.50
2022-11-21T02:58:57.849Z,7.10
2022-11-21T03:01:25.040Z,6.68
2022-11-21T03:03:53.294Z,5.90
2022-11-21T03:06:20.325Z,6.70
2022-11-21T03:08:47.236Z,6.63
2022-11-21T03:11:14.309Z,6.55
2022-11-21T03:13:42.007Z,7.10
2022-11-21T03:16:09.004Z,6.70
2022-11-21T03:18:37.536Z,5.57
2022-11-21T03:21:05.003Z,4.93
2022-11-21T03:23:32.029Z,5.05
2022-11-21T03:26:00.388Z,4.85
2022-11-21T03:28:27.404Z,5.55
2022-11-21T03:30:54.327Z,6.68
2022-11-21T03:33:21.482Z,6.47
2022-11-21T03:35:48.479Z,7.28
2022-11-21T03:38:15.546Z,11.90
2022-11-21T03:40:42.532Z,11.90
2022-11-21T03:43:09.901Z,10.68
2022-11-21T03:45:36.918Z,10.10
2022-11-21T03:48:04.156Z,9.55
2022-11-21T03:50:31.311Z,7.30
2022-11-21T03:52:59.335Z,5.72
2022-11-21T03:55:26.294Z,6.57
2022-11-21T03:57:53.273Z,5.85
2022-11-21T04:00:20.435Z,6.72
2022-11-21T04:02:47.802Z,11.88
2022-11-21T04:05:15.189Z,10.02
2022-11-21T04:07:42.119Z,8.15
2022-11-21T04:10:09.522Z,5.93
2022-11-21T04:12:36.640Z,15.90
2022-11-21T04:15:04.652Z,9.90
2022-11-21T04:17:33.881Z,14.82
2022-11-21T04:20:00.708Z,15.23
2022-11-21T04:22:27.930Z,8.57
2022-11-21T04:24:54.850Z,9.32
2022-11-21T04:27:21.889Z,8.85
2022-11-21T04:29:48.936Z,5.32
2022-11-21T04:32:15.871Z,5.10
2022-11-21T04:34:42.840Z,6.32
2022-11-21T04:37:11.779Z,7.57
2022-11-21T04:39:38.931Z,7.25
2022-11-21T04:42:05.842Z,6.10
2022-11-21T04:44:32.966Z,6.20
2022-11-21T04:47:05.034Z,6.57
2022-11-21T04:49:33.021Z,7.03
2022-11-21T04:51:59.907Z,8.82
2022-11-21T04:54:27.292Z,15.05
2022-11-21T04:56:54.581Z,13.75
2022-11-21T04:59:21.812Z,11.38
2022-11-21T05:01:48.824Z,22.33
2022-11-21T05:04:16.046Z,21.13
2022-11-21T05:06:43.097Z,14.02
2022-11-21T05:09:10.564Z,12.85
2022-11-21T05:11:56.529Z,10.32
2022-11-21T05:14:26.936Z,9.90
2022-11-21T05:16:54.862Z,10.25
2022-11-21T05:19:22.138Z,11.63
2022-11-21T05:21:51.070Z,9.10
2022-11-21T05:24:18.333Z,11.63
2022-11-21T05:26:46.464Z,15.35
2022-11-21T05:29:14.421Z,14.77
2022-11-21T05:31:41.638Z,15.25
2022-11-21T05:34:09.577Z,13.25
2022-11-21T05:36:36.922Z,10.35
2022-11-21T05:39:05.133Z,10.73
2022-11-21T05:41:33.030Z,11.38
2022-11-21T05:44:00.112Z,10.57
2022-11-21T05:46:27.558Z,12.07
2022-11-21T05:48:56.056Z,11.52
2022-11-21T05:51:23.654Z,11.10
2022-11-21T05:53:51.678Z,13.88
2022-11-21T05:56:23.355Z,14.70
2022-11-21T05:58:50.682Z,14.27
2022-11-21T06:01:41.017Z,15.02
2022-11-21T06:04:09.199Z,16.33
2022-11-21T06:06:37.147Z,15.38
2022-11-21T06:09:04.889Z,16.70
2022-11-21T06:11:32.475Z,20.45
2022-11-21T06:13:59.632Z,22.83
2022-11-21T06:16:27.208Z,21.38
2022-11-21T06:18:58.808Z,21.73
2022-11-21T06:21:29.160Z,22.35
2022-11-21T06:23:58.895Z,21.95
2022-11-21T06:26:28.122Z,20.52
2022-11-21T06:28:56.192Z,20.63
2022-11-21T06:31:25.611Z,20.67
2022-11-21T06:33:55.516Z,20.08
2022-11-21T06:36:28.139Z,27.60
2022-11-21T06:38:56.923Z,27.27
2022-11-21T06:41:26.944Z,20.95
2022-11-21T06:43:54.290Z,17.90
2022-11-21T06:46:22.226Z,19.83
2022-11-21T06:48:53.353Z,27.97
2022-11-21T06:51:22.635Z,28.75
2022-11-21T06:53:58.579Z,27.45
2022-11-21T06:56:28.927Z,22.35
2022-11-21T06:58:57.752Z,20.10
2022-11-21T07:01:28.079Z,16.88
2022-11-21T07:03:56.061Z,16.33
2022-11-21T07:06:24.220Z,18.85
2022-11-21T07:09:25.367Z,16.38
2022-11-21T07:11:42.549Z,22.25
2022-11-21T07:14:10.851Z,21.73
2022-11-21T07:16:40.877Z,20.13
2022-11-21T07:19:09.292Z,15.55
2022-11-21T07:21:36.493Z,14.10
2022-11-21T07:24:04.507Z,8.05
2022-11-21T07:26:32.114Z,6.65
2022-11-21T07:29:01.394Z,5.28
2022-11-21T07:31:31.510Z,6.18
2022-11-21T07:33:59.521Z,6.13
2022-11-21T07:36:26.847Z,5.43
2022-11-21T07:38:55.641Z,4.78
2022-11-21T07:41:22.949Z,4.75
2022-11-21T07:43:53.128Z,5.63
2022-11-21T07:46:20.658Z,5.90
2022-11-21T07:48:48.317Z,5.00
2022-11-21T07:51:15.341Z,7.13
2022-11-21T07:53:42.981Z,4.32
2022-11-21T07:56:13.637Z,4.97
2022-11-21T07:58:41.053Z,5.38
2022-11-21T08:01:09.037Z,5.35
2022-11-21T08:03:37.108Z,4.10
2022-11-21T08:06:07.400Z,3.30
2022-11-21T08:08:35.192Z,3.05
2022-11-21T08:11:06.288Z,3.60
2022-11-21T08:13:34.631Z,3.33
2022-11-21T08:16:05.864Z,3.03
2022-11-21T08:18:34.029Z,2.50
2022-11-21T08:21:02.918Z,2.83
2022-11-21T08:23:31.139Z,3.17
2022-11-21T08:25:59.164Z,2.97
2022-11-21T08:28:26.689Z,2.45
2022-11-21T08:30:54.552Z,3.40
2022-11-21T08:33:24.167Z,2.13
2022-11-21T08:35:51.341Z,2.70
2022-11-21T08:38:18.603Z,2.80
2022-11-21T08:40:48.129Z,2.30
2022-11-21T08:43:15.547Z,3.10
2022-11-21T08:45:46.218Z,4.32
2022-11-21T08:48:13.456Z,5.00
2022-11-21T08:50:41.077Z,4.75
2022-11-21T08:53:08.369Z,5.55
2022-11-21T08:55:36.424Z,5.10
2022-11-21T08:58:03.947Z,6.80
2022-11-21T09:00:32.325Z,6.53
2022-11-21T09:02:59.335Z,6.28
2022-11-21T09:05:26.920Z,5.10
2022-11-21T09:07:58.324Z,4.85
2022-11-21T09:10:29.608Z,5.78
2022-11-21T09:13:01.424Z,4.78
2022-11-21T09:15:48.010Z,4.90
2022-11-21T09:18:17.881Z,5.25
2022-11-21T09:20:48.068Z,5.03
2022-11-21T09:23:16.118Z,4.88
2022-11-21T09:25:47.037Z,4.70
2022-11-21T09:28:16.270Z,4.10
2022-11-21T09:30:44.311Z,3.40
2022-11-21T09:33:13.611Z,4.28
2022-11-21T09:35:41.495Z,4.10
2022-11-21T09:38:11.161Z,4.00
2022-11-21T09:40:46.693Z,3.58
2022-11-21T09:44:06.207Z,3.35
2022-11-21T09:46:42.272Z,3.47
2022-11-21T09:49:13.333Z,3.50
2022-11-21T09:51:44.236Z,3.92
2022-11-21T09:54:27.517Z,3.55
2022-11-21T09:57:01.480Z,3.13
2022-11-21T09:59:45.252Z,3.80
2022-11-21T10:02:18.662Z,4.47
2022-11-21T10:04:47.192Z,3.50
2022-11-21T10:07:14.407Z,2.80
2022-11-21T10:10:09.476Z,1.83
2022-11-21T10:12:40.337Z,2.00
2022-11-21T10:15:26.691Z,1.73
2022-11-21T10:18:15.849Z,1.23
2022-11-21T10:21:14.099Z,1.27
2022-11-21T10:23:51.967Z,1.50
2022-11-21T10:26:41.122Z,1.23
2022-11-21T10:29:19.086Z,2.75
2022-11-21T10:31:47.308Z,2.17
2022-11-21T10:34:20.263Z,3.65
2022-11-21T10:36:55.794Z,2.70
2022-11-21T10:39:46.353Z,2.15
2022-11-21T10:42:25.918Z,2.33
2022-11-21T10:45:11.991Z,2.60
2022-11-21T10:47:39.932Z,2.65
2022-11-21T10:50:10.435Z,12.77
2022-11-21T10:52:51.084Z,3.80
2022-11-21T10:55:18.934Z,8.00
2022-11-21T10:57:54.674Z,2.95
2022-11-21T11:00:27.587Z,1.30
2022-11-21T11:03:04.419Z,1.30
2022-11-21T11:05:34.550Z,1.42
2022-11-21T11:08:04.232Z,1.37
2022-11-21T11:10:33.913Z,1.30
2022-11-21T11:16:10.676Z,1.63
2022-11-21T11:18:58.896Z,1.30
2022-11-21T11:21:41.821Z,1.52
2022-11-21T11:24:11.786Z,1.38
2022-11-21T11:26:49.290Z,1.30
2022-11-21T11:29:22.392Z,1.52
2022-11-21T11:32:04.486Z,1.92
2022-11-21T11:34:49.579Z,1.92
2022-11-21T11:37:40.858Z,2.45
2022-11-21T11:40:17.770Z,2.03
2022-11-21T11:43:31.348Z,2.10
2022-11-21T11:46:47.226Z,1.60
2022-11-21T11:49:55.248Z,1.30
2022-11-21T11:52:29.341Z,2.97
2022-11-21T11:55:02.604Z,2.72
2022-11-21T11:57:33.013Z,2.28
2022-11-21T12:00:33.773Z,1.70
2022-11-21T12:03:03.966Z,1.60
2022-11-21T12:05:33.233Z,2.05
2022-11-21T12:11:25.313Z,2.08
2022-11-21T12:13:56.655Z,1.40
2022-11-21T12:16:27.515Z,2.10
2022-11-21T12:19:08.645Z,1.88
2022-11-21T12:21:36.284Z,2.17
2022-11-21T12:24:10.104Z,2.10
2022-11-21T12:27:03.184Z,1.80
2022-11-21T12:29:33.162Z,1.52
2022-11-21T12:32:28.323Z,1.40
2022-11-21T12:35:21.601Z,1.25
2022-11-21T12:38:16.899Z,1.70
2022-11-21T12:41:23.780Z,1.40
2022-11-21T12:44:03.031Z,1.58
2022-11-21T12:46:53.310Z,1.98
2022-11-21T12:50:01.126Z,2.17
2022-11-21T12:52:56.366Z,1.55
2022-11-21T12:55:43.654Z,1.10
2022-11-21T12:58:39.109Z,1.52
2022-11-21T13:01:39.383Z,1.27
2022-11-21T13:04:13.665Z,2.03
2022-11-21T13:06:44.443Z,1.05
2022-11-21T13:09:19.300Z,0.65
2022-11-21T13:12:03.182Z,1.20
2022-11-21T13:14:42.342Z,1.00
2022-11-21T13:17:27.569Z,0.93
2022-11-21T13:20:31.737Z,1.00
2022-11-21T13:23:02.134Z,0.93
2022-11-21T13:25:32.128Z,1.25
2022-11-21T13:28:14.104Z,1.70
2022-11-21T13:30:54.353Z,1.38
2022-11-21T13:33:37.413Z,2.10
2022-11-21T13:36:34.366Z,1.15
2022-11-21T13:39:05.197Z,1.70
2022-11-21T13:41:53.750Z,1.73
2022-11-21T13:44:34.010Z,1.50
2022-11-21T13:47:11.242Z,2.10
2022-11-21T13:49:44.986Z,1.40
2022-11-21T13:52:32.262Z,1.83
2022-11-21T13:55:44.414Z,3.60
2022-11-21T13:58:38.876Z,2.15
2022-11-21T14:01:32.910Z,3.67
2022-11-21T14:04:09.793Z,2.47
2022-11-21T14:06:43.861Z,4.05
2022-11-21T14:09:14.195Z,2.10
2022-11-21T14:11:52.387Z,2.53
2022-11-21T14:14:47.462Z,2.50
2022-11-21T14:17:38.465Z,2.33
2022-11-21T14:20:14.687Z,2.67
2022-11-21T14:23:19.026Z,2.70
2022-11-21T14:25:54.408Z,4.07
2022-11-21T14:28:32.456Z,6.07
2022-11-21T14:31:04.706Z,7.20
2022-11-21T14:33:42.351Z,11.35
2022-11-21T14:36:15.858Z,6.78
2022-11-21T14:39:28.828Z,7.00
2022-11-21T14:44:19.488Z,7.13
2022-11-21T14:46:55.064Z,10.70
2022-11-21T14:49:29.691Z,4.88
2022-11-21T14:52:26.967Z,5.05
2022-11-21T14:57:45.194Z,3.70
2022-11-21T15:00:43.512Z,4.90
2022-11-21T15:03:03.830Z,4.57
2022-11-21T15:06:00.782Z,2.08
2022-11-21T15:11:13.864Z,2.38
2022-11-21T15:14:12.268Z,2.30
2022-11-21T15:16:30.625Z,2.53
2022-11-21T15:18:58.029Z,2.90
2022-11-21T15:21:25.187Z,3.63
2022-11-21T15:23:55.571Z,5.43
2022-11-21T15:26:34.248Z,5.07
2022-11-21T15:29:01.540Z,5.28
2022-11-21T15:31:29.210Z,2.92
2022-11-21T15:37:15.386Z,7.75
2022-11-21T15:39:51.977Z,9.65
2022-11-21T15:42:36.724Z,4.47
2022-11-21T15:45:26.759Z,5.13
2022-11-21T15:47:55.671Z,5.30
2022-11-21T15:50:25.151Z,3.40
2022-11-21T15:52:54.203Z,2.90
2022-11-21T15:55:29.276Z,3.33
2022-11-21T15:57:56.451Z,4.03
2022-11-21T16:00:23.658Z,4.10
2022-11-21T16:02:50.917Z,4.72
2022-11-21T16:05:18.766Z,7.43
2022-11-21T16:07:53.052Z,6.15
2022-11-21T16:10:27.424Z,5.65
2022-11-21T16:12:57.378Z,5.45
2022-11-21T16:15:25.188Z,5.10
2022-11-21T16:17:53.133Z,4.05
2022-11-21T16:20:20.654Z,5.38
2022-11-21T16:22:48.285Z,6.60
2022-11-21T16:25:17.207Z,3.20
2022-11-21T16:27:47.873Z,3.55
2022-11-21T16:30:16.052Z,5.68
2022-11-21T16:32:43.476Z,5.13
2022-11-21T16:35:12.238Z,3.67
2022-11-21T16:37:42.061Z,3.45
2022-11-21T16:40:11.002Z,4.38
2022-11-21T16:42:38.332Z,4.30
2022-11-21T16:45:06.005Z,5.47
2022-11-21T16:47:42.068Z,6.40
2022-11-21T16:50:16.558Z,4.30
2022-11-21T16:52:49.718Z,3.90
2022-11-21T16:55:17.976Z,5.35
2022-11-21T16:57:45.206Z,6.45
2022-11-21T17:00:12.463Z,7.80
2022-11-21T17:02:39.542Z,14.32
2022-11-21T17:05:07.373Z,8.02
2022-11-21T17:07:36.822Z,8.52
2022-11-21T17:10:05.810Z,4.43
2022-11-21T17:12:40.147Z,9.65
2022-11-21T17:15:11.561Z,4.75
2022-11-21T17:17:39.104Z,4.88
2022-11-21T17:20:08.363Z,8.18
2022-11-21T17:22:37.500Z,4.22
2022-11-21T17:25:05.313Z,4.28
2022-11-21T17:27:32.713Z,4.45
2022-11-21T17:29:59.859Z,4.82
2022-11-21T17:32:26.953Z,4.57
2022-11-21T17:34:54.017Z,4.63
2022-11-21T17:37:21.494Z,3.97
2022-11-21T17:39:48.867Z,4.50
2022-11-21T17:42:16.089Z,6.82
2022-11-21T17:44:43.167Z,7.20
2022-11-21T17:47:10.553Z,5.85
2022-11-21T17:49:37.775Z,5.32
2022-11-21T17:52:07.151Z,5.72
2022-11-21T17:54:34.465Z,6.30
2022-11-21T17:57:04.452Z,2.70
2022-11-21T17:59:32.958Z,2.70
2022-11-21T18:02:03.292Z,3.08
2022-11-21T18:04:30.392Z,4.60
2022-11-21T18:06:59.520Z,5.32
2022-11-21T18:09:26.799Z,5.55
2022-11-21T18:11:54.102Z,6.57
2022-11-21T18:14:22.557Z,6.32
2022-11-21T18:16:53.400Z,5.57
2022-11-21T18:19:21.178Z,6.97
2022-11-21T18:21:48.522Z,6.95
2022-11-21T18:24:15.473Z,6.47
2022-11-21T18:26:42.428Z,9.00
2022-11-21T18:32:06.059Z,10.70
2022-11-21T18:34:33.270Z,6.88
2022-11-21T18:37:00.251Z,5.75
2022-11-21T18:39:27.367Z,6.32
2022-11-21T18:41:54.560Z,4.65
2022-11-21T18:44:22.478Z,6.30
2022-11-21T18:46:50.024Z,5.35
2022-11-21T18:49:19.466Z,4.55
2022-11-21T18:51:46.425Z,6.10
2022-11-21T18:54:13.909Z,8.20
2022-11-21T18:56:41.508Z,6.88
2022-11-21T18:59:08.496Z,6.55
2022-11-21T19:01:40.138Z,5.75
2022-11-21T19:04:07.887Z,7.07
2022-11-21T19:06:35.007Z,8.05
2022-11-21T19:09:02.207Z,7.25
2022-11-21T19:11:30.350Z,6.63
2022-11-21T19:14:00.580Z,6.60
2022-11-21T19:16:31.310Z,7.88
2022-11-21T19:21:49.518Z,6.70
2022-11-21T19:24:17.309Z,6.40
2022-11-21T19:26:50.637Z,5.82
2022-11-21T19:29:17.874Z,6.72
2022-11-21T19:31:46.103Z,7.95
2022-11-21T19:34:16.973Z,9.00
2022-11-21T19:36:44.883Z,8.60
2022-11-21T19:39:12.339Z,8.32
2022-11-21T19:41:39.493Z,9.68
2022-11-21T19:44:06.612Z,11.48
2022-11-21T19:46:38.565Z,9.88
2022-11-21T19:49:19.388Z,7.85
2022-11-21T19:51:46.351Z,9.02
2022-11-21T19:54:13.899Z,8.02
2022-11-21T19:56:40.919Z,8.57
2022-11-21T19:59:10.395Z,8.05
2022-11-21T20:01:38.688Z,8.05
2022-11-21T20:04:07.457Z,8.60
2022-11-21T20:06:37.329Z,6.50
2022-11-21T20:09:07.306Z,7.00
2022-11-21T20:11:35.388Z,7.57
2022-11-21T20:14:03.047Z,8.65
2022-11-21T20:16:33.241Z,6.85
2022-11-21T20:19:03.380Z,11.57
2022-11-21T20:21:32.121Z,14.50
2022-11-21T20:24:00.965Z,9.98
2022-11-21T20:26:28.476Z,7.60
2022-11-21T20:28:55.979Z,8.55
2022-11-21T20:31:29.048Z,7.63
2022-11-21T20:34:04.444Z,8.85
2022-11-21T20:36:34.203Z,8.40
2022-11-21T20:39:05.486Z,8.75
2022-11-21T20:41:35.846Z,7.85
2022-11-21T20:46:57.246Z,8.55
2022-11-21T20:49:27.154Z,8.60
2022-11-21T20:53:43.883Z,7.40
2022-11-21T20:54:41.318Z,6.90
2022-11-21T20:57:14.297Z,7.07
2022-11-21T20:59:45.414Z,7.32
2022-11-21T21:02:14.215Z,6.88
2022-11-21T21:04:42.460Z,7.93
2022-11-21T21:07:09.696Z,7.50
2022-11-21T21:09:36.856Z,6.93
2022-11-21T21:12:05.427Z,7.07
2022-11-21T21:14:32.516Z,6.72
2022-11-21T21:16:59.549Z,8.52
2022-11-21T21:19:26.780Z,7.88
2022-11-21T21:21:54.049Z,7.53
2022-11-21T21:24:20.997Z,8.07
2022-11-21T21:26:49.577Z,7.28
2022-11-21T21:29:19.569Z,7.10
2022-11-21T21:31:52.390Z,7.53
2022-11-21T21:34:23.338Z,8.30
2022-11-21T21:36:51.460Z,8.77
2022-11-21T21:39:18.655Z,8.32
2022-11-21T21:41:47.338Z,9.27
2022-11-21T21:44:15.419Z,8.77
2022-11-21T21:46:43.032Z,10.07
2022-11-21T21:49:10.062Z,9.25
2022-11-21T21:51:37.860Z,9.10
2022-11-21T21:54:05.298Z,7.50
2022-11-21T21:56:33.847Z,6.45
2022-11-21T21:59:00.952Z,5.93
2022-11-21T22:01:30.636Z,7.05
2022-11-21T22:04:02.815Z,7.22
2022-11-21T22:06:31.464Z,7.30
2022-11-21T22:09:01.465Z,6.95
2022-11-21T22:11:31.757Z,7.90
2022-11-21T22:14:02.905Z,7.50
2022-11-21T22:16:30.724Z,8.35
2022-11-21T22:18:58.126Z,8.20
2022-11-21T22:21:32.594Z,7.93
2022-11-21T22:26:48.409Z,7.25
2022-11-21T22:29:15.242Z,8.20
2022-11-21T22:31:42.056Z,8.02
2022-11-21T22:34:12.329Z,7.72
2022-11-21T22:36:39.410Z,7.43
2022-11-21T22:39:07.515Z,7.55
2022-11-21T22:41:34.633Z,8.68
2022-11-21T22:44:01.733Z,8.13
2022-11-21T22:46:29.702Z,7.45
2022-11-21T22:48:56.803Z,7.43
2022-11-21T22:51:26.494Z,7.25
2022-11-21T22:53:53.676Z,9.45
2022-11-21T22:56:23.139Z,9.43
2022-11-21T22:58:51.014Z,10.35
2022-11-21T23:01:20.693Z,11.75
2022-11-21T23:03:48.279Z,10.55
2022-11-21T23:06:17.962Z,8.60
2022-11-21T23:08:45.578Z,9.43
2022-11-21T23:11:31.620Z,10.52
2022-11-21T23:14:00.000Z,11.23
2022-11-21T23:16:26.972Z,9.63
2022-11-21T23:18:55.050Z,9.43
2022-11-21T23:21:22.581Z,8.70
2022-11-21T23:23:50.151Z,9.65
2022-11-21T23:26:17.335Z,9.70
2022-11-21T23:28:44.463Z,9.68
2022-11-21T23:31:11.619Z,8.50
2022-11-21T23:33:38.675Z,9.20
2022-11-21T23:36:05.904Z,8.85
2022-11-21T23:38:32.904Z,8.52
2022-11-21T23:40:59.735Z,7.82
2022-11-21T23:43:27.314Z,7.63
2022-11-21T23:45:54.998Z,7.93
2022-11-21T23:48:24.404Z,9.00
2022-11-21T23:50:51.774Z,8.15
2022-11-21T23:53:19.868Z,7.75
2022-11-21T23:55:47.055Z,7.90
2022-11-21T23:58:14.401Z,8.07
